Amherst, Colorado
Current Conditions -  °F | °C
As of 10:02 AM on Thursday 18 Dec 2014 (Local Time) from KIML Reporting Station
Haze Haze  
Wind Chill: 17°   Ceiling: 300
Heat Index: 25°   Visibility: 1.5mi
Dew Point: 23°   Wind: 7mph
Humidity: 92%   Direction: 270°W
Pressure: 30.11"   Gusts: NA
Location:  40.68°N, 102.17°W
Report Text: KIML 181702Z AUTO 27006KT 1 1/2SM BR OVC003 M04/M05 A3011 RMK AO2 T10391050
Loading
Personal Weather Stations






























Interactive Weather Map New forecast layout! Learn more

10-Day Weather Forecast

Advertisements
Track Severe Weather on mobile